sensor_id;sensor_type;location;lat;lon;timestamp;pressure;altitude;pressure_sealevel;temperature;humidity
35023;BME280;21214;44.912;8.204;2023-12-20T00:01:41;99768.06;;;1.52;100.00
35023;BME280;21214;44.912;8.204;2023-12-20T00:04:07;99769.50;;;1.57;100.00
35023;BME280;21214;44.912;8.204;2023-12-20T00:06:32;99767.56;;;1.61;100.00
35023;BME280;21214;44.912;8.204;2023-12-20T00:08:58;99772.44;;;1.67;100.00
35023;BME280;21214;44.912;8.204;2023-12-20T00:11:24;99768.00;;;1.69;100.00
35023;BME280;21214;44.912;8.204;2023-12-20T00:13:50;99759.75;;;1.61;100.00
35023;BME280;21214;44.912;8.204;2023-12-20T00:16:15;99749.00;;;1.51;100.00
35023;BME280;21214;44.912;8.204;2023-12-20T00:18:41;99744.97;;;1.46;100.00
35023;BME280;21214;44.912;8.204;2023-12-20T00:21:06;99734.56;;;1.46;100.00
35023;BME280;21214;44.912;8.204;2023-12-20T00:23:32;99746.66;;;1.47;100.00
35023;BME280;21214;44.912;8.204;2023-12-20T00:25:58;99738.72;;;1.33;100.00
35023;BME280;21214;44.912;8.204;2023-12-20T00:28:23;99733.41;;;1.18;100.00
35023;BME280;21214;44.912;8.204;2023-12-20T00:30:49;99740.16;;;1.05;100.00
35023;BME280;21214;44.912;8.204;2023-12-20T00:33:14;99740.09;;;0.90;100.00
35023;BME280;21214;44.912;8.204;2023-12-20T00:35:40;99734.66;;;0.77;100.00
35023;BME280;21214;44.912;8.204;2023-12-20T00:38:05;99720.16;;;0.73;100.00
35023;BME280;21214;44.912;8.204;2023-12-20T00:40:32;99715.75;;;0.75;100.00
35023;BME280;21214;44.912;8.204;2023-12-20T00:42:58;99715.44;;;0.81;100.00
35023;BME280;21214;44.912;8.204;2023-12-20T00:45:24;99710.34;;;0.95;100.00
35023;BME280;21214;44.912;8.204;2023-12-20T00:47:49;99707.91;;;1.09;100.00
35023;BME280;21214;44.912;8.204;2023-12-20T00:50:16;99697.94;;;1.17;100.00
35023;BME280;21214;44.912;8.204;2023-12-20T00:52:41;99680.16;;;1.26;100.00
35023;BME280;21214;44.912;8.204;2023-12-20T00:55:07;99675.16;;;1.22;100.00
35023;BME280;21214;44.912;8.204;2023-12-20T00:57:33;99684.91;;;1.35;100.00
35023;BME280;21214;44.912;8.204;2023-12-20T00:59:58;99684.25;;;1.47;100.00
35023;BME280;21214;44.912;8.204;2023-12-20T01:02:24;99687.59;;;1.49;100.00
35023;BME280;21214;44.912;8.204;2023-12-20T01:04:50;99702.34;;;1.48;100.00
35023;BME280;21214;44.912;8.204;2023-12-20T01:07:15;99706.44;;;1.37;100.00
35023;BME280;21214;44.912;8.204;2023-12-20T01:09:41;99709.84;;;1.21;100.00
35023;BME280;21214;44.912;8.204;2023-12-20T01:12:06;99707.75;;;0.95;100.00
35023;BME280;21214;44.912;8.204;2023-12-20T01:14:32;99700.00;;;0.78;100.00
35023;BME280;21214;44.912;8.204;2023-12-20T01:16:58;99699.63;;;0.68;100.00
35023;BME280;21214;44.912;8.204;2023-12-20T01:19:24;99684.81;;;0.70;100.00
35023;BME280;21214;44.912;8.204;2023-12-20T01:21:50;99677.44;;;0.78;100.00
35023;BME280;21214;44.912;8.204;2023-12-20T01:24:15;99675.38;;;0.85;100.00
35023;BME280;21214;44.912;8.204;2023-12-20T01:26:41;99678.25;;;0.96;100.00
35023;BME280;21214;44.912;8.204;2023-12-20T01:29:06;99688.19;;;1.05;100.00
35023;BME280;21214;44.912;8.204;2023-12-20T01:31:32;99683.66;;;1.09;100.00
35023;BME280;21214;44.912;8.204;2023-12-20T01:33:57;99689.72;;;1.09;100.00
35023;BME280;21214;44.912;8.204;2023-12-20T01:36:23;99680.16;;;1.10;100.00
35023;BME280;21214;44.912;8.204;2023-12-20T01:38:49;99673.28;;;1.09;100.00
35023;BME280;21214;44.912;8.204;2023-12-20T01:41:14;99662.81;;;1.10;100.00
35023;BME280;21214;44.912;8.204;2023-12-20T01:43:40;99660.53;;;1.04;100.00
35023;BME280;21214;44.912;8.204;2023-12-20T01:46:06;99638.31;;;1.14;100.00
35023;BME280;21214;44.912;8.204;2023-12-20T01:48:32;99639.09;;;1.16;100.00
35023;BME280;21214;44.912;8.204;2023-12-20T01:50:59;99624.56;;;1.12;100.00
35023;BME280;21214;44.912;8.204;2023-12-20T01:53:26;99623.31;;;1.19;100.00
35023;BME280;21214;44.912;8.204;2023-12-20T01:55:54;99619.97;;;1.17;100.00
35023;BME280;21214;44.912;8.204;2023-12-20T01:58:20;99628.84;;;1.13;100.00
35023;BME280;21214;44.912;8.204;2023-12-20T02:00:47;99647.53;;;1.20;100.00
35023;BME280;21214;44.912;8.204;2023-12-20T02:03:13;99656.97;;;1.22;100.00
35023;BME280;21214;44.912;8.204;2023-12-20T02:05:38;99651.50;;;1.11;100.00
35023;BME280;21214;44.912;8.204;2023-12-20T02:08:06;99652.56;;;1.07;100.00
35023;BME280;21214;44.912;8.204;2023-12-20T02:10:31;99648.13;;;1.09;100.00
35023;BME280;21214;44.912;8.204;2023-12-20T02:12:58;99630.69;;;1.11;100.00
35023;BME280;21214;44.912;8.204;2023-12-20T02:15:24;99634.16;;;1.12;100.00
35023;BME280;21214;44.912;8.204;2023-12-20T02:17:49;99622.66;;;1.16;100.00
35023;BME280;21214;44.912;8.204;2023-12-20T02:20:15;99623.31;;;1.19;100.00
35023;BME280;21214;44.912;8.204;2023-12-20T02:22:41;99619.97;;;1.17;100.00
35023;BME280;21214;44.912;8.204;2023-12-20T02:25:07;99619.97;;;1.17;100.00
35023;BME280;21214;44.912;8.204;2023-12-20T02:27:32;99630.38;;;1.17;100.00
35023;BME280;21214;44.912;8.204;2023-12-20T02:29:58;99633.63;;;1.05;100.00
35023;BME280;21214;44.912;8.204;2023-12-20T02:32:24;99637.94;;;0.89;100.00
35023;BME280;21214;44.912;8.204;2023-12-20T02:34:53;99634.13;;;0.79;100.00
35023;BME280;21214;44.912;8.204;2023-12-20T02:37:19;99640.25;;;0.78;100.00
35023;BME280;21214;44.912;8.204;2023-12-20T02:39:44;99637.81;;;0.75;100.00
35023;BME280;21214;44.912;8.204;2023-12-20T02:42:10;99624.06;;;0.73;100.00
35023;BME280;21214;44.912;8.204;2023-12-20T02:44:35;99618.72;;;0.76;100.00
35023;BME280;21214;44.912;8.204;2023-12-20T02:47:02;99603.28;;;0.73;100.00
35023;BME280;21214;44.912;8.204;2023-12-20T02:49:27;99594.84;;;0.85;100.00
35023;BME280;21214;44.912;8.204;2023-12-20T02:51:53;99586.59;;;0.94;100.00
35023;BME280;21214;44.912;8.204;2023-12-20T02:54:19;99590.63;;;1.00;100.00
35023;BME280;21214;44.912;8.204;2023-12-20T02:56:44;99593.69;;;1.06;100.00
35023;BME280;21214;44.912;8.204;2023-12-20T02:59:10;99585.91;;;1.06;100.00
35023;BME280;21214;44.912;8.204;2023-12-20T03:01:41;99578.88;;;1.08;100.00
35023;BME280;21214;44.912;8.204;2023-12-20T03:04:07;99577.63;;;1.15;100.00
35023;BME280;21214;44.912;8.204;2023-12-20T03:06:33;99583.59;;;1.17;100.00
35023;BME280;21214;44.912;8.204;2023-12-20T03:08:59;99576.38;;;1.22;100.00
35023;BME280;21214;44.912;8.204;2023-12-20T03:11:28;99588.47;;;1.23;100.00
35023;BME280;21214;44.912;8.204;2023-12-20T03:13:54;99594.66;;;1.21;100.00
35023;BME280;21214;44.912;8.204;2023-12-20T03:16:20;99589.78;;;1.15;100.00
35023;BME280;21214;44.912;8.204;2023-12-20T03:18:46;99578.88;;;1.08;100.00
35023;BME280;21214;44.912;8.204;2023-12-20T03:21:11;99571.00;;;0.94;100.00
35023;BME280;21214;44.912;8.204;2023-12-20T03:23:37;99553.72;;;0.93;100.00
35023;BME280;21214;44.912;8.204;2023-12-20T03:26:03;99551.19;;;1.07;100.00
35023;BME280;21214;44.912;8.204;2023-12-20T03:28:29;99550.69;;;1.01;100.00
35023;BME280;21214;44.912;8.204;2023-12-20T03:30:55;99541.50;;;1.11;100.00
35023;BME280;21214;44.912;8.204;2023-12-20T03:33:20;99540.22;;;1.18;100.00
35023;BME280;21214;44.912;8.204;2023-12-20T03:35:46;99557.25;;;1.23;100.00
35023;BME280;21214;44.912;8.204;2023-12-20T03:38:12;99561.44;;;1.10;100.00
35023;BME280;21214;44.912;8.204;2023-12-20T03:40:37;99565.28;;;1.03;100.00
35023;BME280;21214;44.912;8.204;2023-12-20T03:43:03;99569.13;;;0.96;100.00
35023;BME280;21214;44.912;8.204;2023-12-20T03:45:29;99550.09;;;0.80;100.00
35023;BME280;21214;44.912;8.204;2023-12-20T03:47:54;99539.84;;;0.77;100.00
35023;BME280;21214;44.912;8.204;2023-12-20T03:50:22;99545.81;;;0.79;100.00
35023;BME280;21214;44.912;8.204;2023-12-20T03:52:47;99530.75;;;0.86;100.00
35023;BME280;21214;44.912;8.204;2023-12-20T03:55:13;99511.91;;;0.82;100.00
35023;BME280;21214;44.912;8.204;2023-12-20T03:57:39;99507.13;;;0.90;100.00
35023;BME280;21214;44.912;8.204;2023-12-20T04:00:05;99520.69;;;0.95;100.00
35023;BME280;21214;44.912;8.204;2023-12-20T04:02:40;99522.03;;;1.02;100.00
35023;BME280;21214;44.912;8.204;2023-12-20T04:05:07;99507.94;;;1.06;100.00
35023;BME280;21214;44.912;8.204;2023-12-20T04:07:33;99515.59;;;1.09;100.00
35023;BME280;21214;44.912;8.204;2023-12-20T04:09:59;99516.34;;;1.11;100.00
35023;BME280;21214;44.912;8.204;2023-12-20T04:12:25;99511.63;;;1.02;100.00
35023;BME280;21214;44.912;8.204;2023-12-20T04:14:51;99514.00;;;0.91;100.00
35023;BME280;21214;44.912;8.204;2023-12-20T04:17:17;99499.50;;;0.87;100.00
35023;BME280;21214;44.912;8.204;2023-12-20T04:19:43;99498.56;;;0.72;100.00
35023;BME280;21214;44.912;8.204;2023-12-20T04:22:09;99491.84;;;0.84;100.00
35023;BME280;21214;44.912;8.204;2023-12-20T04:24:34;99498.81;;;0.83;100.00
35023;BME280;21214;44.912;8.204;2023-12-20T04:27:01;99502.91;;;0.72;100.00
35023;BME280;21214;44.912;8.204;2023-12-20T04:29:26;99498.47;;;0.74;100.00
35023;BME280;21214;44.912;8.204;2023-12-20T04:31:52;99490.34;;;0.80;100.00
35023;BME280;21214;44.912;8.204;2023-12-20T04:34:18;99487.31;;;0.72;100.00
35023;BME280;21214;44.912;8.204;2023-12-20T04:36:43;99471.34;;;0.64;100.00
35023;BME280;21214;44.912;8.204;2023-12-20T04:39:10;99473.16;;;0.62;100.00
35023;BME280;21214;44.912;8.204;2023-12-20T04:41:35;99477.84;;;0.71;100.00
35023;BME280;21214;44.912;8.204;2023-12-20T04:44:01;99464.38;;;0.80;100.00
35023;BME280;21214;44.912;8.204;2023-12-20T04:46:26;99463.28;;;0.84;100.00
35023;BME280;21214;44.912;8.204;2023-12-20T04:48:52;99454.31;;;0.74;100.00
35023;BME280;21214;44.912;8.204;2023-12-20T04:51:17;99461.38;;;0.88;100.00
35023;BME280;21214;44.912;8.204;2023-12-20T04:53:43;99470.41;;;0.80;100.00
35023;BME280;21214;44.912;8.204;2023-12-20T04:56:08;99476.03;;;0.73;100.00
35023;BME280;21214;44.912;8.204;2023-12-20T04:58:34;99480.31;;;0.58;100.00
35023;BME280;21214;44.912;8.204;2023-12-20T05:00:59;99490.16;;;0.52;100.00
35023;BME280;21214;44.912;8.204;2023-12-20T05:03:25;99469.72;;;0.46;100.00
35023;BME280;21214;44.912;8.204;2023-12-20T05:05:50;99460.69;;;0.53;100.00
35023;BME280;21214;44.912;8.204;2023-12-20T05:08:16;99480.38;;;0.57;100.00
35023;BME280;21214;44.912;8.204;2023-12-20T05:10:41;99467.91;;;0.63;100.00
35023;BME280;21214;44.912;8.204;2023-12-20T05:13:07;99471.75;;;0.72;100.00
35023;BME280;21214;44.912;8.204;2023-12-20T05:15:33;99465.31;;;0.79;100.00
35023;BME280;21214;44.912;8.204;2023-12-20T05:17:58;99453.66;;;0.86;100.00
35023;BME280;21214;44.912;8.204;2023-12-20T05:20:24;99454.25;;;0.91;100.00
35023;BME280;21214;44.912;8.204;2023-12-20T05:22:50;99459.03;;;0.99;100.00
35023;BME280;21214;44.912;8.204;2023-12-20T05:25:15;99447.72;;;1.00;100.00
35023;BME280;21214;44.912;8.204;2023-12-20T05:27:41;99444.09;;;1.02;100.00
35023;BME280;21214;44.912;8.204;2023-12-20T05:30:07;99426.66;;;1.04;100.00
35023;BME280;21214;44.912;8.204;2023-12-20T05:32:32;99424.78;;;1.06;100.00
35023;BME280;21214;44.912;8.204;2023-12-20T05:34:58;99429.28;;;1.18;100.00
35023;BME280;21214;44.912;8.204;2023-12-20T05:37:23;99436.00;;;1.22;100.00
35023;BME280;21214;44.912;8.204;2023-12-20T05:39:49;99430.47;;;1.29;100.00
35023;BME280;21214;44.912;8.204;2023-12-20T05:42:14;99424.69;;;1.23;100.00
35023;BME280;21214;44.912;8.204;2023-12-20T05:44:40;99423.66;;;1.26;100.00
35023;BME280;21214;44.912;8.204;2023-12-20T05:47:05;99439.88;;;1.15;100.00
35023;BME280;21214;44.912;8.204;2023-12-20T05:49:31;99426.22;;;1.12;100.00
35023;BME280;21214;44.912;8.204;2023-12-20T05:51:56;99431.31;;;1.13;100.00
35023;BME280;21214;44.912;8.204;2023-12-20T05:54:22;99430.50;;;0.97;100.00
35023;BME280;21214;44.912;8.204;2023-12-20T05:56:48;99429.19;;;0.90;100.00
35023;BME280;21214;44.912;8.204;2023-12-20T05:59:14;99434.22;;;0.93;100.00
35023;BME280;21214;44.912;8.204;2023-12-20T06:01:39;99441.09;;;0.94;100.00
35023;BME280;21214;44.912;8.204;2023-12-20T06:04:05;99443.09;;;0.89;100.00
35023;BME280;21214;44.912;8.204;2023-12-20T06:06:30;99450.28;;;0.84;100.00
35023;BME280;21214;44.912;8.204;2023-12-20T06:08:56;99439.41;;;0.93;100.00
35023;BME280;21214;44.912;8.204;2023-12-20T06:11:21;99427.16;;;0.95;100.00
35023;BME280;21214;44.912;8.204;2023-12-20T06:13:47;99423.06;;;0.91;100.00
35023;BME280;21214;44.912;8.204;2023-12-20T06:16:14;99425.75;;;1.05;100.00
35023;BME280;21214;44.912;8.204;2023-12-20T06:18:40;99417.59;;;1.11;100.00
35023;BME280;21214;44.912;8.204;2023-12-20T06:21:06;99423.63;;;1.12;100.00
35023;BME280;21214;44.912;8.204;2023-12-20T06:23:33;99436.84;;;1.23;100.00
35023;BME280;21214;44.912;8.204;2023-12-20T06:25:59;99428.78;;;1.28;100.00
35023;BME280;21214;44.912;8.204;2023-12-20T06:28:25;99449.41;;;1.31;100.00
35023;BME280;21214;44.912;8.204;2023-12-20T06:30:50;99434.13;;;1.40;100.00
35023;BME280;21214;44.912;8.204;2023-12-20T06:33:17;99430.47;;;1.29;100.00
35023;BME280;21214;44.912;8.204;2023-12-20T06:35:44;99432.31;;;1.27;100.00
35023;BME280;21214;44.912;8.204;2023-12-20T06:38:09;99429.91;;;1.23;100.00
35023;BME280;21214;44.912;8.204;2023-12-20T06:40:35;99433.81;;;1.31;100.00
35023;BME280;21214;44.912;8.204;2023-12-20T06:43:00;99434.00;;;1.28;100.00
35023;BME280;21214;44.912;8.204;2023-12-20T06:45:26;99445.22;;;1.28;100.00
35023;BME280;21214;44.912;8.204;2023-12-20T06:47:51;99436.41;;;1.31;100.00
35023;BME280;21214;44.912;8.204;2023-12-20T06:50:17;99438.84;;;1.34;100.00
35023;BME280;21214;44.912;8.204;2023-12-20T06:52:42;99445.38;;;1.41;100.00
35023;BME280;21214;44.912;8.204;2023-12-20T06:55:08;99450.38;;;1.44;100.00
35023;BME280;21214;44.912;8.204;2023-12-20T06:57:33;99451.22;;;1.44;100.00
35023;BME280;21214;44.912;8.204;2023-12-20T07:00:00;99448.22;;;1.36;100.00
35023;BME280;21214;44.912;8.204;2023-12-20T07:02:26;99448.03;;;1.39;100.00
35023;BME280;21214;44.912;8.204;2023-12-20T07:04:54;99446.84;;;1.45;100.00
35023;BME280;21214;44.912;8.204;2023-12-20T07:07:20;99442.97;;;1.52;100.00
35023;BME280;21214;44.912;8.204;2023-12-20T07:09:45;99438.34;;;1.57;100.00
35023;BME280;21214;44.912;8.204;2023-12-20T07:12:11;99428.69;;;1.59;100.00
35023;BME280;21214;44.912;8.204;2023-12-20T07:14:36;99422.66;;;1.58;100.00
35023;BME280;21214;44.912;8.204;2023-12-20T07:17:02;99432.03;;;1.61;100.00
35023;BME280;21214;44.912;8.204;2023-12-20T07:19:28;99440.41;;;1.66;100.00
35023;BME280;21214;44.912;8.204;2023-12-20T07:21:53;99440.88;;;1.73;100.00
35023;BME280;21214;44.912;8.204;2023-12-20T07:24:19;99439.78;;;1.77;100.00
35023;BME280;21214;44.912;8.204;2023-12-20T07:26:45;99452.41;;;1.83;100.00
35023;BME280;21214;44.912;8.204;2023-12-20T07:29:10;99468.03;;;1.83;100.00
35023;BME280;21214;44.912;8.204;2023-12-20T07:31:36;99460.84;;;1.72;100.00
35023;BME280;21214;44.912;8.204;2023-12-20T07:34:01;99473.97;;;1.71;100.00
35023;BME280;21214;44.912;8.204;2023-12-20T07:36:27;99465.31;;;1.70;100.00
35023;BME280;21214;44.912;8.204;2023-12-20T07:38:52;99465.06;;;1.75;100.00
35023;BME280;21214;44.912;8.204;2023-12-20T07:41:18;99480.56;;;1.76;100.00
35023;BME280;21214;44.912;8.204;2023-12-20T07:43:46;99485.78;;;1.76;100.00
35023;BME280;21214;44.912;8.204;2023-12-20T07:46:12;99481.31;;;1.78;100.00
35023;BME280;21214;44.912;8.204;2023-12-20T07:48:37;99466.25;;;1.69;100.00
35023;BME280;21214;44.912;8.204;2023-12-20T07:51:04;99456.19;;;1.63;100.00
35023;BME280;21214;44.912;8.204;2023-12-20T07:53:29;99439.13;;;1.73;100.00
35023;BME280;21214;44.912;8.204;2023-12-20T07:55:56;99439.88;;;1.75;100.00
35023;BME280;21214;44.912;8.204;2023-12-20T07:58:21;99456.59;;;1.85;100.00
35023;BME280;21214;44.912;8.204;2023-12-20T08:00:47;99451.25;;;1.88;100.00
35023;BME280;21214;44.912;8.204;2023-12-20T08:03:13;99436.53;;;2.01;100.00
35023;BME280;21214;44.912;8.204;2023-12-20T08:05:38;99436.00;;;1.96;100.00
35023;BME280;21214;44.912;8.204;2023-12-20T08:08:07;99432.84;;;2.05;100.00
35023;BME280;21214;44.912;8.204;2023-12-20T08:10:32;99441.69;;;2.17;100.00
35023;BME280;21214;44.912;8.204;2023-12-20T08:12:59;99445.47;;;2.26;100.00
35023;BME280;21214;44.912;8.204;2023-12-20T08:15:26;99466.03;;;2.30;100.00
35023;BME280;21214;44.912;8.204;2023-12-20T08:17:51;99462.78;;;2.27;100.00
35023;BME280;21214;44.912;8.204;2023-12-20T08:20:17;99466.13;;;2.29;100.00
35023;BME280;21214;44.912;8.204;2023-12-20T08:22:43;99458.03;;;2.33;100.00
35023;BME280;21214;44.912;8.204;2023-12-20T08:25:08;99465.56;;;2.38;100.00
35023;BME280;21214;44.912;8.204;2023-12-20T08:27:39;99473.09;;;2.42;100.00
35023;BME280;21214;44.912;8.204;2023-12-20T08:30:05;99475.69;;;2.42;100.00
35023;BME280;21214;44.912;8.204;2023-12-20T08:32:31;99481.03;;;2.41;100.00
35023;BME280;21214;44.912;8.204;2023-12-20T08:34:59;99470.59;;;2.41;100.00
35023;BME280;21214;44.912;8.204;2023-12-20T08:37:24;99463.88;;;2.37;100.00
35023;BME280;21214;44.912;8.204;2023-12-20T08:39:50;99461.41;;;2.35;100.00
35023;BME280;21214;44.912;8.204;2023-12-20T08:42:15;99465.94;;;2.32;100.00
35023;BME280;21214;44.912;8.204;2023-12-20T08:44:41;99474.69;;;2.31;100.00
35023;BME280;21214;44.912;8.204;2023-12-20T08:47:06;99481.41;;;2.35;100.00
35023;BME280;21214;44.912;8.204;2023-12-20T08:49:32;99481.94;;;2.40;100.00
35023;BME280;21214;44.912;8.204;2023-12-20T08:51:58;99482.50;;;2.45;100.00
35023;BME280;21214;44.912;8.204;2023-12-20T08:54:23;99488.81;;;2.55;100.00
35023;BME280;21214;44.912;8.204;2023-12-20T08:56:50;99472.81;;;2.61;100.00
35023;BME280;21214;44.912;8.204;2023-12-20T08:59:15;99473.66;;;2.62;100.00
35023;BME280;21214;44.912;8.204;2023-12-20T09:01:41;99481.91;;;2.68;100.00
35023;BME280;21214;44.912;8.204;2023-12-20T09:04:06;99475.41;;;2.75;100.00
35023;BME280;21214;44.912;8.204;2023-12-20T09:06:32;99473.91;;;2.71;100.00
35023;BME280;21214;44.912;8.204;2023-12-20T09:08:57;99475.78;;;2.69;100.00
35023;BME280;21214;44.912;8.204;2023-12-20T09:11:23;99483.06;;;2.64;100.00
35023;BME280;21214;44.912;8.204;2023-12-20T09:13:48;99481.03;;;2.41;100.00
35023;BME280;21214;44.912;8.204;2023-12-20T09:16:14;99473.38;;;2.38;100.00
35023;BME280;21214;44.912;8.204;2023-12-20T09:18:41;99475.41;;;2.61;100.00
35023;BME280;21214;44.912;8.204;2023-12-20T09:21:07;99477.56;;;2.69;100.00
35023;BME280;21214;44.912;8.204;2023-12-20T09:23:32;99484.16;;;2.74;100.00
35023;BME280;21214;44.912;8.204;2023-12-20T09:25:58;99487.38;;;2.78;100.00
35023;BME280;21214;44.912;8.204;2023-12-20T09:28:24;99466.66;;;2.76;100.00
35023;BME280;21214;44.912;8.204;2023-12-20T09:30:49;99469.59;;;2.84;100.00
35023;BME280;21214;44.912;8.204;2023-12-20T09:33:15;99473.13;;;2.83;100.00
35023;BME280;21214;44.912;8.204;2023-12-20T09:35:42;99468.69;;;2.85;100.00
35023;BME280;21214;44.912;8.204;2023-12-20T09:38:07;99472.03;;;2.73;100.00
35023;BME280;21214;44.912;8.204;2023-12-20T09:40:34;99462.78;;;2.96;100.00
35023;BME280;21214;44.912;8.204;2023-12-20T09:43:05;99454.09;;;2.69;100.00
35023;BME280;21214;44.912;8.204;2023-12-20T09:45:35;99450.81;;;2.79;100.00
35023;BME280;21214;44.912;8.204;2023-12-20T09:48:01;99442.59;;;3.00;100.00
35023;BME280;21214;44.912;8.204;2023-12-20T09:50:27;99448.13;;;3.08;100.00
35023;BME280;21214;44.912;8.204;2023-12-20T09:52:53;99454.09;;;3.10;100.00
35023;BME280;21214;44.912;8.204;2023-12-20T09:55:21;99448.38;;;2.91;100.00
35023;BME280;21214;44.912;8.204;2023-12-20T09:57:47;99452.06;;;3.01;100.00
35023;BME280;21214;44.912;8.204;2023-12-20T10:00:13;99444.38;;;2.85;100.00
35023;BME280;21214;44.912;8.204;2023-12-20T10:02:45;99444.53;;;2.69;100.00
35023;BME280;21214;44.912;8.204;2023-12-20T10:05:16;99442.25;;;2.77;100.00
35023;BME280;21214;44.912;8.204;2023-12-20T10:07:45;99446.97;;;2.99;100.00
35023;BME280;21214;44.912;8.204;2023-12-20T10:10:13;99430.97;;;3.18;100.00
35023;BME280;21214;44.912;8.204;2023-12-20T10:12:39;99433.50;;;3.32;100.00
35023;BME280;21214;44.912;8.204;2023-12-20T10:15:06;99439.78;;;3.42;100.00
35023;BME280;21214;44.912;8.204;2023-12-20T10:17:32;99448.69;;;3.52;100.00
35023;BME280;21214;44.912;8.204;2023-12-20T10:19:58;99444.19;;;3.54;100.00
35023;BME280;21214;44.912;8.204;2023-12-20T10:22:24;99442.06;;;3.34;100.00
35023;BME280;21214;44.912;8.204;2023-12-20T10:24:49;99439.25;;;3.37;100.00
35023;BME280;21214;44.912;8.204;2023-12-20T10:27:18;99445.41;;;3.36;100.00
35023;BME280;21214;44.912;8.204;2023-12-20T10:29:44;99443.97;;;3.45;100.00
35023;BME280;21214;44.912;8.204;2023-12-20T10:32:22;99440.53;;;3.44;100.00
35023;BME280;21214;44.912;8.204;2023-12-20T10:34:49;99429.75;;;3.36;100.00
35023;BME280;21214;44.912;8.204;2023-12-20T10:37:14;99424.13;;;3.42;100.00
35023;BME280;21214;44.912;8.204;2023-12-20T10:39:42;99416.56;;;3.64;100.00
35023;BME280;21214;44.912;8.204;2023-12-20T10:42:10;99431.91;;;3.69;100.00
35023;BME280;21214;44.912;8.204;2023-12-20T10:44:36;99431.50;;;3.75;100.00
35023;BME280;21214;44.912;8.204;2023-12-20T10:47:03;99443.28;;;3.68;100.00
35023;BME280;21214;44.912;8.204;2023-12-20T10:49:30;99438.59;;;3.73;100.00
35023;BME280;21214;44.912;8.204;2023-12-20T10:51:56;99433.81;;;3.80;100.00
35023;BME280;21214;44.912;8.204;2023-12-20T10:54:25;99426.31;;;3.88;100.00
35023;BME280;21214;44.912;8.204;2023-12-20T10:56:52;99413.34;;;3.99;100.00
35023;BME280;21214;44.912;8.204;2023-12-20T10:59:20;99422.97;;;4.11;100.00
35023;BME280;21214;44.912;8.204;2023-12-20T11:01:47;99433.28;;;4.25;100.00
35023;BME280;21214;44.912;8.204;2023-12-20T11:04:19;99426.50;;;4.35;100.00
35023;BME280;21214;44.912;8.204;2023-12-20T11:07:13;99417.25;;;4.42;100.00
35023;BME280;21214;44.912;8.204;2023-12-20T11:09:47;99416.41;;;4.54;100.00
35023;BME280;21214;44.912;8.204;2023-12-20T11:12:49;99406.34;;;4.61;100.00
35023;BME280;21214;44.912;8.204;2023-12-20T11:15:07;99412.78;;;4.81;100.00
35023;BME280;21214;44.912;8.204;2023-12-20T11:17:33;99392.47;;;4.84;100.00
35023;BME280;21214;44.912;8.204;2023-12-20T11:22:29;99381.63;;;5.02;100.00
35023;BME280;21214;44.912;8.204;2023-12-20T11:25:02;99364.78;;;5.06;100.00
35023;BME280;21214;44.912;8.204;2023-12-20T11:27:30;99350.00;;;4.93;100.00
35023;BME280;21214;44.912;8.204;2023-12-20T11:29:58;99366.28;;;4.97;100.00
35023;BME280;21214;44.912;8.204;2023-12-20T11:34:58;99355.44;;;5.25;100.00
35023;BME280;21214;44.912;8.204;2023-12-20T11:37:31;99343.78;;;5.18;100.00
35023;BME280;21214;44.912;8.204;2023-12-20T11:40:05;99323.22;;;5.25;100.00
35023;BME280;21214;44.912;8.204;2023-12-20T11:42:33;99323.97;;;5.38;100.00
35023;BME280;21214;44.912;8.204;2023-12-20T11:45:03;99320.31;;;5.52;100.00
35023;BME280;21214;44.912;8.204;2023-12-20T11:47:30;99319.47;;;5.51;100.00
35023;BME280;21214;44.912;8.204;2023-12-20T11:49:56;99309.13;;;5.61;100.00
35023;BME280;21214;44.912;8.204;2023-12-20T11:52:22;99296.03;;;5.50;100.00
35023;BME280;21214;44.912;8.204;2023-12-20T11:54:47;99313.69;;;5.59;100.00
35023;BME280;21214;44.912;8.204;2023-12-20T11:57:13;99320.31;;;5.52;100.00
35023;BME280;21214;44.912;8.204;2023-12-20T11:59:39;99313.88;;;5.56;100.00
35023;BME280;21214;44.912;8.204;2023-12-20T12:02:04;99322.69;;;5.66;100.00
35023;BME280;21214;44.912;8.204;2023-12-20T12:04:30;99321.28;;;5.73;100.00
35023;BME280;21214;44.912;8.204;2023-12-20T12:06:55;99318.19;;;5.79;100.00
35023;BME280;21214;44.912;8.204;2023-12-20T12:09:21;99309.88;;;5.85;100.00
35023;BME280;21214;44.912;8.204;2023-12-20T12:11:46;99312.03;;;5.91;100.00
35023;BME280;21214;44.912;8.204;2023-12-20T12:14:12;99304.91;;;5.93;100.00
35023;BME280;21214;44.912;8.204;2023-12-20T12:16:38;99289.31;;;5.92;100.00
35023;BME280;21214;44.912;8.204;2023-12-20T12:19:03;99287.53;;;5.92;100.00
35023;BME280;21214;44.912;8.204;2023-12-20T12:21:29;99286.81;;;5.90;100.00
35023;BME280;21214;44.912;8.204;2023-12-20T12:24:06;99274.16;;;5.84;100.00
35023;BME280;21214;44.912;8.204;2023-12-20T12:26:32;99268.91;;;5.84;100.00
35023;BME280;21214;44.912;8.204;2023-12-20T12:28:57;99271.69;;;5.83;100.00
35023;BME280;21214;44.912;8.204;2023-12-20T12:31:23;99273.47;;;5.82;100.00
35023;BME280;21214;44.912;8.204;2023-12-20T12:33:50;99264.16;;;5.78;100.00
35023;BME280;21214;44.912;8.204;2023-12-20T12:36:16;99262.50;;;5.77;100.00
35023;BME280;21214;44.912;8.204;2023-12-20T12:38:43;99262.50;;;5.77;100.00
35023;BME280;21214;44.912;8.204;2023-12-20T12:41:08;99264.16;;;5.78;100.00
35023;BME280;21214;44.912;8.204;2023-12-20T12:43:35;99243.94;;;5.80;100.00
35023;BME280;21214;44.912;8.204;2023-12-20T12:46:00;99250.59;;;5.95;100.00
35023;BME280;21214;44.912;8.204;2023-12-20T12:48:26;99260.81;;;6.21;100.00
35023;BME280;21214;44.912;8.204;2023-12-20T12:50:53;99249.19;;;6.45;100.00
35023;BME280;21214;44.912;8.204;2023-12-20T12:53:19;99238.94;;;6.74;100.00
35023;BME280;21214;44.912;8.204;2023-12-20T12:55:45;99238.84;;;6.96;100.00
35023;BME280;21214;44.912;8.204;2023-12-20T12:58:11;99243.59;;;7.23;100.00
35023;BME280;21214;44.912;8.204;2023-12-20T13:00:37;99236.38;;;7.46;100.00